Time,TemperatureF,DewpointF,PressureIn,WindDirection,WindDirectionDegrees,WindSpeedMPH,WindSpeedGustMPH,Humidity,HourlyPrecipIn,Conditions,Clouds,dailyrainin,SolarRadiationWatts/m^2,SoftwareType,DateUTC
2013-07-01 00:00:00,64.0,57.0,30.17,SE,128,7.0,-999.0,78,-99.99,,,-99.99,0.140000,,2013-07-01 06:00:00,
2013-07-01 02:00:00,61.0,56.0,30.17,SE,130,6.0,-999.0,84,-99.99,,,-99.99,0.120000,,2013-07-01 08:00:00,
2013-07-01 03:00:00,60.0,55.0,30.17,SE,132,6.0,-999.0,84,-99.99,,,-99.99,0.120000,,2013-07-01 09:00:00,
2013-07-01 03:53:00,60.0,55.0,30.17,SE,132,6.0,-999.0,84,-99.99,,,-99.99,0.120000,,2013-07-01 09:53:00,
2013-07-01 04:00:00,60.0,55.0,30.17,SE,134,5.0,-999.0,84,-99.99,,,-99.99,0.130000,,2013-07-01 10:00:00,
2013-07-01 04:52:00,60.0,55.0,30.17,SE,134,5.0,-999.0,84,-99.99,,,-99.99,0.130000,,2013-07-01 10:52:00,
2013-07-01 05:00:00,59.0,54.0,30.18,ESE,121,1.0,-999.0,83,-99.99,,,-99.99,0.270000,,2013-07-01 11:00:00,
2013-07-01 05:52:00,59.0,54.0,30.18,ESE,121,1.0,-999.0,83,-99.99,,,-99.99,0.270000,,2013-07-01 11:52:00,
2013-07-01 06:00:00,62.0,56.0,30.19,SE,129,1.0,-999.0,81,-99.99,,,-99.99,20.410000,,2013-07-01 12:00:00,
2013-07-01 06:53:00,62.0,56.0,30.19,SE,129,1.0,-999.0,81,-99.99,,,-99.99,20.410000,,2013-07-01 12:53:00,
2013-07-01 07:00:00,64.0,56.0,30.18,East,85,1.0,-999.0,76,-99.99,,,-99.99,124.900002,,2013-07-01 13:00:00,
2013-07-01 07:53:00,64.0,56.0,30.18,East,85,1.0,-999.0,76,-99.99,,,-99.99,124.900002,,2013-07-01 13:53:00,
2013-07-01 08:00:00,67.0,57.0,30.19,ESE,112,3.0,-999.0,69,-99.99,,,-99.99,243.000000,,2013-07-01 14:00:00,
2013-07-01 09:00:00,70.0,59.0,30.18,SE,138,5.0,-999.0,67,-99.99,,,-99.99,281.600006,,2013-07-01 15:00:00,
2013-07-01 09:53:00,70.0,59.0,30.18,SE,138,5.0,-999.0,67,-99.99,,,-99.99,281.600006,,2013-07-01 15:53:00,
2013-07-01 10:00:00,73.0,59.0,30.17,SE,146,4.0,-999.0,60,-99.99,,,-99.99,301.799988,,2013-07-01 16:00:00,
2013-07-01 10:53:00,73.0,59.0,30.17,SE,146,4.0,-999.0,60,-99.99,,,-99.99,301.799988,,2013-07-01 16:53:00,
2013-07-01 11:00:00,77.0,58.0,30.17,SE,130,6.0,-999.0,53,-99.99,,,-99.99,542.599976,,2013-07-01 17:00:00,
2013-07-01 12:00:00,80.0,55.0,30.16,ESE,123,7.0,-999.0,43,-99.99,,,-99.99,661.500000,,2013-07-01 18:00:00,
2013-07-01 12:53:00,80.0,55.0,30.16,ESE,123,7.0,-999.0,43,-99.99,,,-99.99,661.500000,,2013-07-01 18:53:00,
2013-07-01 13:00:00,81.0,51.0,30.15,SE,125,6.0,-999.0,36,-99.99,,,-99.99,689.500000,,2013-07-01 19:00:00,
2013-07-01 14:00:00,81.0,51.0,30.14,SE,129,6.0,-999.0,35,-99.99,,,-99.99,580.599976,,2013-07-01 20:00:00,
2013-07-01 14:52:00,81.0,51.0,30.14,SE,129,6.0,-999.0,35,-99.99,,,-99.99,580.599976,,2013-07-01 20:52:00,
2013-07-01 15:00:00,82.0,50.0,30.13,SE,146,5.0,-999.0,33,-99.99,,,-99.99,593.099976,,2013-07-01 21:00:00,
2013-07-01 16:00:00,83.0,51.0,30.12,ENE,78,5.0,-999.0,33,-99.99,,,-99.99,519.799988,,2013-07-01 22:00:00,
2013-07-01 16:53:00,83.0,51.0,30.12,ENE,78,5.0,-999.0,33,-99.99,,,-99.99,519.799988,,2013-07-01 22:53:00,
2013-07-01 17:00:00,83.0,50.0,30.12,East,86,4.0,-999.0,32,-99.99,,,-99.99,506.600006,,2013-07-01 23:00:00,
2013-07-01 18:00:00,83.0,50.0,30.10,NNE,32,4.0,-999.0,32,-99.99,,,-99.99,383.899994,,2013-07-02 00:00:00,
2013-07-01 19:00:00,83.0,51.0,30.09,ENE,69,5.0,-999.0,33,-99.99,,,-99.99,257.500000,,2013-07-02 01:00:00,
2013-07-01 20:00:00,80.0,58.0,30.09,East,92,5.0,-999.0,47,-99.99,,,-99.99,133.199997,,2013-07-02 02:00:00,
2013-07-01 20:53:00,80.0,58.0,30.09,East,92,5.0,-999.0,47,-99.99,,,-99.99,133.199997,,2013-07-02 02:53:00,
2013-07-01 21:00:00,72.0,59.0,30.10,SE,125,5.0,-999.0,65,-99.99,,,-99.99,30.530001,,2013-07-02 03:00:00,
2013-07-01 22:00:00,70.0,58.0,30.13,SE,131,8.0,-999.0,66,-99.99,,,-99.99,0.800000,,2013-07-02 04:00:00,
2013-07-01 22:53:00,70.0,58.0,30.13,SE,131,8.0,-999.0,66,-99.99,,,-99.99,0.800000,,2013-07-02 04:53:00,
2013-07-01 23:00:00,67.0,57.0,30.13,SE,132,8.0,-999.0,70,-99.99,,,-99.99,0.150000,,2013-07-02 05:00:00,
2013-07-01 23:53:00,67.0,57.0,30.13,SE,132,8.0,-999.0,70,-99.99,,,-99.99,0.150000,,2013-07-02 05:53:00,